Time;durP1;ratioP1;P1;durP2;ratioP2;P2;SDS_P1;SDS_P2;PMS_P1;PMS_P2;Temp;Humidity;BMP_temperature;BMP_pressure;BME280_temperature;BME280_humidity;BME280_pressure;Samples;Min_cycle;Max_cycle;Signal;HPM_P1;HPM_P2
2023/07/20 00:00:53;;;;;;;;;;;;;;;17.87;71.67;95892.14;107127;1284;24220;-90
2023/07/20 00:04:36;;;;;;;;;;;;;;;17.82;71.95;95897.73;107199;1279;22541;-89
2023/07/20 00:07:25;;;;;;;;;;;;;;;17.80;71.57;95897.39;107127;1281;22528;-89
2023/07/20 00:10:31;;;;;;;;;;;;;;;17.76;71.54;95891.81;107021;1285;124778;-89
2023/07/20 00:13:37;;;;;;;;;;;;;;;17.71;72.02;95892.10;107218;1276;22661;-89
2023/07/20 00:16:44;;;;;;;;;;;;;;;17.66;71.53;95883.90;107041;1284;124903;-90
2023/07/20 00:19:51;;;;;;;;;;;;;;;17.63;71.71;95882.96;107095;1281;22524;-89
2023/07/20 00:22:57;;;;;;;;;;;;;;;17.63;72.16;95885.01;107046;1285;124649;-90
2023/07/20 00:26:04;;;;;;;;;;;;;;;17.63;72.61;95884.48;107166;1285;22565;-88
2023/07/20 00:29:10;;;;;;;;;;;;;;;17.68;72.98;95894.14;106977;1281;124840;-89
2023/07/20 00:32:16;;;;;;;;;;;;;;;17.72;73.44;95908.77;107143;1284;23429;-90
2023/07/20 00:35:22;;;;;;;;;;;;;;;17.77;73.76;95928.15;107031;1284;125757;-88
2023/07/20 00:38:29;;;;;;;;;;;;;;;17.86;73.51;95954.30;107015;1277;22543;-88
2023/07/20 00:41:35;;;;;;;;;;;;;;;17.90;74.31;96004.85;106997;1284;124553;-89
2023/07/20 00:44:41;;;;;;;;;;;;;;;17.82;75.08;95985.15;107073;1284;22534;-90
2023/07/20 00:47:48;;;;;;;;;;;;;;;17.81;75.79;95962.38;107045;1284;125153;-90
2023/07/20 00:50:55;;;;;;;;;;;;;;;17.84;75.98;95981.28;107051;1279;25489;-89
2023/07/20 00:54:00;;;;;;;;;;;;;;;17.88;76.72;95975.40;106985;1284;124400;-89
2023/07/20 00:57:07;;;;;;;;;;;;;;;17.87;76.67;95982.02;107095;1284;24398;-89
2023/07/20 01:00:13;;;;;;;;;;;;;;;17.90;75.97;95991.14;107151;1284;125445;-89
2023/07/20 01:03:19;;;;;;;;;;;;;;;17.94;75.36;95971.18;107226;1284;24244;-88
2023/07/20 01:06:28;;;;;;;;;;;;;;;17.98;76.47;95966.28;107966;1278;124748;-89
2023/07/20 01:09:34;;;;;;;;;;;;;;;17.97;77.02;95959.14;108942;1284;22538;-89
2023/07/20 01:12:44;;;;;;;;;;;;;;;17.97;77.14;95955.49;108630;1284;124076;-89
2023/07/20 01:15:51;;;;;;;;;;;;;;;17.98;77.26;95944.52;107129;1283;25406;-89
2023/07/20 01:18:56;;;;;;;;;;;;;;;17.97;76.88;95942.92;107198;1276;22533;-89
2023/07/20 01:22:02;;;;;;;;;;;;;;;17.96;76.45;95939.88;107123;1278;22515;-88
2023/07/20 01:25:18;;;;;;;;;;;;;;;17.95;76.51;95935.38;107149;1284;23411;-88
2023/07/20 01:28:37;;;;;;;;;;;;;;;17.96;77.23;95928.98;107174;1283;22663;-89
2023/07/20 01:32:03;;;;;;;;;;;;;;;17.96;77.65;95938.25;106998;1283;22520;-89
2023/07/20 01:35:08;;;;;;;;;;;;;;;17.99;77.94;95939.80;106467;1284;124491;-89
2023/07/20 01:38:14;;;;;;;;;;;;;;;17.99;77.87;95935.27;106696;1284;22475;-89
2023/07/20 01:41:21;;;;;;;;;;;;;;;17.98;78.20;95935.69;106555;1291;125287;-89
2023/07/20 01:44:27;;;;;;;;;;;;;;;17.98;78.45;95938.48;106586;1285;23262;-89
2023/07/20 01:47:33;;;;;;;;;;;;;;;17.95;78.44;95937.75;106372;1293;124944;-89
2023/07/20 01:50:39;;;;;;;;;;;;;;;17.95;78.58;95935.90;106760;1284;24185;-90
2023/07/20 01:53:46;;;;;;;;;;;;;;;17.91;78.65;95936.48;106868;1284;123388;-89
2023/07/20 01:56:53;;;;;;;;;;;;;;;17.93;79.09;95938.82;107063;1284;22544;-88
2023/07/20 01:59:59;;;;;;;;;;;;;;;17.92;78.79;95932.66;107005;1284;124333;-89
2023/07/20 02:03:05;;;;;;;;;;;;;;;17.89;79.14;95931.52;107126;1284;22533;-89
2023/07/20 02:06:11;;;;;;;;;;;;;;;17.88;79.13;95940.09;107057;1278;125049;-89
2023/07/20 02:09:17;;;;;;;;;;;;;;;17.85;79.29;95950.19;107092;1284;22529;-89
2023/07/20 02:12:24;;;;;;;;;;;;;;;17.87;79.29;95963.04;106969;1285;125445;-89
2023/07/20 02:15:30;;;;;;;;;;;;;;;17.90;78.85;95972.58;107109;1276;22556;-90
2023/07/20 02:18:37;;;;;;;;;;;;;;;17.92;78.36;95978.96;107029;1280;123708;-89
2023/07/20 02:21:43;;;;;;;;;;;;;;;17.95;78.11;95978.44;107093;1278;25225;-89
2023/07/20 02:24:50;;;;;;;;;;;;;;;17.97;77.99;95977.79;106978;1284;125022;-89
2023/07/20 02:27:55;;;;;;;;;;;;;;;17.95;77.95;95981.17;107033;1278;25486;-87
2023/07/20 02:31:02;;;;;;;;;;;;;;;17.95;77.62;95993.00;107069;1285;124455;-89
2023/07/20 02:34:09;;;;;;;;;;;;;;;17.96;77.58;95988.55;107092;1284;23909;-88
2023/07/20 02:37:15;;;;;;;;;;;;;;;17.97;77.75;95986.56;107065;1284;26006;-87
2023/07/20 02:40:21;;;;;;;;;;;;;;;17.93;77.34;95999.80;107099;1277;25247;-88
2023/07/20 02:43:28;;;;;;;;;;;;;;;17.90;76.84;96007.22;107428;1278;22595;-88
2023/07/20 02:46:35;;;;;;;;;;;;;;;17.86;76.36;96000.55;107544;1280;23297;-88
2023/07/20 02:49:40;;;;;;;;;;;;;;;17.83;76.87;95988.79;107209;1285;22671;-88
2023/07/20 02:52:47;;;;;;;;;;;;;;;17.82;76.83;95989.09;107227;1285;24984;-87
2023/07/20 02:55:53;;;;;;;;;;;;;;;17.79;76.54;96006.23;107319;1284;22550;-88
2023/07/20 02:58:59;;;;;;;;;;;;;;;17.70;76.32;96012.42;107177;1279;124943;-89
2023/07/20 03:02:09;;;;;;;;;;;;;;;17.60;76.17;96020.61;107329;1284;25248;-88
2023/07/20 03:05:13;;;;;;;;;;;;;;;17.56;76.57;96025.78;107153;1286;124948;-88
2023/07/20 03:08:19;;;;;;;;;;;;;;;17.51;76.79;96022.42;107240;1286;25045;-89
2023/07/20 03:11:25;;;;;;;;;;;;;;;17.47;77.09;96027.36;107141;1283;125008;-88
2023/07/20 03:14:32;;;;;;;;;;;;;;;17.46;77.39;96032.64;107306;1281;25289;-89
2023/07/20 03:17:39;;;;;;;;;;;;;;;17.40;77.45;96035.14;107212;1286;124440;-88
2023/07/20 03:20:46;;;;;;;;;;;;;;;17.37;77.24;96040.07;107264;1284;23054;-88
2023/07/20 03:23:52;;;;;;;;;;;;;;;17.33;77.34;96035.74;107540;1279;124709;-88
2023/07/20 03:26:59;;;;;;;;;;;;;;;17.32;77.47;96043.72;107064;1286;24785;-88
2023/07/20 03:30:07;;;;;;;;;;;;;;;17.25;77.35;96047.46;106993;1286;124741;-89
2023/07/20 03:33:11;;;;;;;;;;;;;;;17.19;77.45;96056.19;107072;1286;22537;-88
2023/07/20 03:36:17;;;;;;;;;;;;;;;17.14;77.73;96067.84;106998;1286;124329;-88
2023/07/20 03:39:24;;;;;;;;;;;;;;;17.04;77.70;96074.73;107095;1285;22524;-89
2023/07/20 03:42:30;;;;;;;;;;;;;;;17.01;77.94;96078.91;107035;1282;124285;-89
2023/07/20 03:45:36;;;;;;;;;;;;;;;17.01;78.25;96091.08;106982;1286;22656;-88
2023/07/20 03:48:42;;;;;;;;;;;;;;;17.01;78.37;96095.97;106906;1286;124469;-89
2023/07/20 03:51:49;;;;;;;;;;;;;;;16.92;78.44;96099.91;106980;1286;24227;-88
2023/07/20 03:54:55;;;;;;;;;;;;;;;16.83;78.84;96102.45;106939;1280;124990;-88
2023/07/20 03:58:01;;;;;;;;;;;;;;;16.81;79.29;96105.44;107003;1278;22511;-89
2023/07/20 04:01:09;;;;;;;;;;;;;;;16.78;79.36;96101.49;106848;1286;125187;-89
2023/07/20 04:04:14;;;;;;;;;;;;;;;16.77;79.41;96101.63;107046;1278;22605;-88
2023/07/20 04:07:21;;;;;;;;;;;;;;;16.73;79.55;96088.87;106995;1281;22537;-89
2023/07/20 04:10:27;;;;;;;;;;;;;;;16.73;79.83;96093.76;107120;1285;25882;-88
2023/07/20 04:13:34;;;;;;;;;;;;;;;16.73;80.19;96098.21;106985;1286;25461;-89
2023/07/20 04:16:40;;;;;;;;;;;;;;;16.73;80.16;96103.61;107125;1278;23068;-89
2023/07/20 04:19:48;;;;;;;;;;;;;;;16.76;80.73;96104.34;107008;1286;22528;-89
2023/07/20 04:22:54;;;;;;;;;;;;;;;16.77;80.69;96100.12;107117;1285;22587;-89
2023/07/20 04:26:01;;;;;;;;;;;;;;;16.70;80.73;96096.52;106995;1280;25217;-88
2023/07/20 04:29:07;;;;;;;;;;;;;;;16.66;81.05;96098.84;107014;1280;124233;-88
2023/07/20 04:32:14;;;;;;;;;;;;;;;16.68;81.13;96109.48;107040;1286;22528;-88
2023/07/20 04:35:20;;;;;;;;;;;;;;;16.65;81.26;96120.55;106765;1286;125508;-89
2023/07/20 04:38:27;;;;;;;;;;;;;;;16.64;81.51;96114.67;106859;1286;22504;-88
2023/07/20 04:41:34;;;;;;;;;;;;;;;16.64;81.19;96117.66;106974;1279;124511;-88
2023/07/20 04:44:39;;;;;;;;;;;;;;;16.64;81.59;96121.43;107069;1285;25487;-88
2023/07/20 04:47:46;;;;;;;;;;;;;;;16.65;81.94;96123.63;106966;1278;124545;-88
2023/07/20 04:50:52;;;;;;;;;;;;;;;16.64;81.86;96119.55;107029;1286;22518;-88
2023/07/20 04:53:58;;;;;;;;;;;;;;;16.61;81.72;96112.23;106909;1286;124371;-89
2023/07/20 04:57:05;;;;;;;;;;;;;;;16.61;82.07;96109.73;106979;1286;25489;-88
2023/07/20 05:00:13;;;;;;;;;;;;;;;16.62;83.08;96108.95;106936;1286;124344;-88
2023/07/20 05:03:17;;;;;;;;;;;;;;;16.66;82.88;96110.63;107075;1286;24237;-88
2023/07/20 05:06:23;;;;;;;;;;;;;;;16.70;82.91;96115.20;106933;1286;124862;-88
2023/07/20 05:09:29;;;;;;;;;;;;;;;16.74;82.51;96118.96;107014;1284;24626;-88
2023/07/20 05:12:36;;;;;;;;;;;;;;;16.73;83.11;96112.86;106932;1286;124393;-89
2023/07/20 06:16:22;;;;;;;;;;;;;;;17.30;82.70;96091.57;108384;1280;22548;-90
2023/07/20 07:15:25;;;;;;;;;;;;;;;18.10;78.75;96101.46;109875;1280;22454;-90
2023/07/20 07:35:52;;;;;;;;;;;;;;;18.42;77.94;96111.03;109775;1285;123516;-90
2023/07/20 07:47:55;;;;;;;;;;;;;;;18.57;77.48;96117.08;109636;1283;125527;-90
2023/07/20 08:00:31;;;;;;;;;;;;;;;18.73;78.07;96109.77;109786;1283;124563;-88
2023/07/20 08:06:27;;;;;;;;;;;;;;;18.84;78.12;96109.58;109677;1287;126606;-90
2023/07/20 08:15:38;;;;;;;;;;;;;;;19.10;77.58;96117.59;109751;1280;22493;-89
2023/07/20 08:19:29;;;;;;;;;;;;;;;19.15;77.64;96128.19;109661;1287;124369;-91
2023/07/20 08:37:44;;;;;;;;;;;;;;;19.37;75.87;96140.45;109583;1286;124922;-90
2023/07/20 09:04:23;;;;;;;;;;;;;;;;;;;;;
2023/07/20 09:07:29;;;;;;;;;;;;;;;19.60;75.66;96145.48;109593;1283;125680;-91
2023/07/20 09:10:59;;;;;;;;;;;;;;;19.67;75.63;96148.20;109450;1290;22507;-91
2023/07/20 09:29:23;;;;;;;;;;;;;;;19.93;75.53;96141.52;109738;1288;22468;-90
2023/07/20 09:53:21;;;;;;;;;;;;;;;;;;;;;
2023/07/20 09:56:37;;;;;;;;;;;;;;;20.41;73.83;96153.29;109711;1287;22459;-91
2023/07/20 10:24:45;;;;;;;;;;;;;;;20.68;70.84;96133.70;105545;1288;5403572;-91
2023/07/20 10:28:02;;;;;;;;;;;;;;;20.74;71.11;96134.06;109762;1284;22497;-91
2023/07/20 10:31:28;;;;;;;;;;;;;;;20.81;71.13;96136.23;109752;1286;124768;-91
2023/07/20 10:34:50;;;;;;;;;;;;;;;20.91;69.82;96129.98;109872;1286;22762;-91
2023/07/20 10:38:27;;;;;;;;;;;;;;;20.96;70.20;96131.16;109589;1288;124426;-91
2023/07/20 10:41:59;;;;;;;;;;;;;;;21.05;71.25;96129.40;109688;1282;23116;-91
2023/07/20 10:45:01;;;;;;;;;;;;;;;21.17;69.98;96135.45;109634;1265;22530;-91
